Terminal Aerodrome Forecast
Issued by NWS

Home | Current Version | Previous Version | Text Only | Print | Product List | Glossary On
Versions: 1 2 3 4 5 6 7 8 9 10 11 12 13 14 15 16 17 18 19 20 21 22 23 24
000
FTUS45 KGJT 210520
TAFASE
TAF
KASE 210520Z 2106/2206 20007KT P6SM FEW110
     FM211700 34005KT P6SM FEW080 SCT200
     FM212300 35012G18KT P6SM SCT080 BKN110
     FM220200 14004KT P6SM FEW060 SCT130=

USA.gov is the U.S. government's official web portal to all federal, state and local government web resources and services.